Terminal Aerodrome Forecast
Issued by NWS Shreveport, LA

Home | Current Version | Previous Version | Text Only | Print | Product List | Glossary On
Versions: 1 2 3 4 5 6 7 8 9 10 11 12
000
FTUS44 KSHV 111100
TAFTYR
TAF
KTYR 111139Z 1112/1212 20005KT P6SM SKC
     FM111500 21008KT P6SM SKC
     FM111700 21008KT P6SM SCT050
     FM120100 17005KT P6SM SKC=

USA.gov is the U.S. government's official web portal to all federal, state and local government web resources and services.